Mise à jour: Mardi, 31 août 2010, 04h30 (UTC+4)
Trajectoire complète du système 06 06 CYCLONE tropical intense CLEO
Date et Heure
en UTC
(soit H+4
à La Réunion)
Longit.


(°Est)
Latitude


(°Sud)
Intensité
Dvorak
analysée
(1.0/8.0)

Type de système
analysé

Pression
minimale
estimée
(hPa)
Vent moyen
sur 10'
maxi estimé
(noeud,km/h)
Rafales
maximales
associées
(noeud,km/h)
03/12/2009 00:00 96.44 6.84 1.0 Zone perturbée 1008 15 kt, 27 km/h 21 kt, 39 km/h
03/12/2009 06:00 95.13 6.88 1.0 Zone perturbée 1008 15 kt, 27 km/h 21 kt, 39 km/h
03/12/2009 12:00 94.00 7.04 1.0 Zone perturbée 1007 15 kt, 27 km/h 21 kt, 39 km/h
03/12/2009 18:00 93.03 7.29 1.0 Zone perturbée 1007 15 kt, 27 km/h 21 kt, 39 km/h
04/12/2009 00:00 92.16 7.62 1.0 Zone perturbée 1006 15 kt, 27 km/h 21 kt, 39 km/h
04/12/2009 06:00 91.36 8.09 1.0 Zone perturbée 1006 15 kt, 27 km/h 21 kt, 39 km/h
04/12/2009 12:00 90.77 8.38 1.0 Zone perturbée 1006 15 kt, 27 km/h 21 kt, 39 km/h
04/12/2009 18:00 90.27 8.58 1.0 Zone perturbée 1006 15 kt, 27 km/h 21 kt, 39 km/h
05/12/2009 00:00 89.67 8.81 1.5 Zone perturbée 1005 20 kt, 37 km/h 28 kt, 52 km/h
05/12/2009 06:00 88.38 9.08 1.5 Zone perturbée 1005 20 kt, 37 km/h 28 kt, 52 km/h
05/12/2009 12:00 86.83 8.87 1.5 Zone perturbée 1005 20 kt, 37 km/h 28 kt, 52 km/h
05/12/2009 18:00 86.03 8.67 1.5 Zone perturbée 1005 20 kt, 37 km/h 28 kt, 52 km/h
06/12/2009 00:00 85.21 8.49 1.5 Zone perturbée 1004 20 kt, 37 km/h 28 kt, 52 km/h
06/12/2009 06:00 84.28 8.45 2.0 Perturbation tropicale 1003 23 kt, 42 km/h 32 kt, 60 km/h
06/12/2009 12:00 83.69 8.46 2.0 Perturbation tropicale 1002 25 kt, 46 km/h 35 kt, 65 km/h
06/12/2009 18:00 82.95 8.45 2.0 Perturbation tropicale 1001 25 kt, 46 km/h 35 kt, 65 km/h
07/12/2009 00:00 81.75 8.60 2.5 DEPRESSION tropicale 999 28 kt, 51 km/h 39 kt, 73 km/h
07/12/2009 06:00 80.52 8.92 2.5 TEMPETE tropicale moderée 996 35 kt, 64 km/h 49 kt, 91 km/h
07/12/2009 12:00 79.39 9.16 3.5 TEMPETE tropicale moderée 989 45 kt, 83 km/h 63 kt, 117 km/h
07/12/2009 18:00 78.38 9.66 4.0 Forte TEMPETE tropicale 980 55 kt, 101 km/h 77 kt, 143 km/h
08/12/2009 00:00 77.34 10.41 4.5 CYCLONE tropical 972 65 kt, 120 km/h 91 kt, 169 km/h
08/12/2009 06:00 76.35 10.71 5.5 CYCLONE tropical intense 945 90 kt, 166 km/h 126 kt, 235 km/h
08/12/2009 12:00 75.62 11.03 6.0 CYCLONE tropical intense 930 105 kt, 194 km/h 148 kt, 274 km/h
08/12/2009 18:00 74.83 11.33 6.0 CYCLONE tropical intense 935 100 kt, 185 km/h 141 kt, 261 km/h
09/12/2009 00:00 74.06 11.57 5.0 CYCLONE tropical 955 82 kt, 151 km/h 115 kt, 214 km/h
09/12/2009 06:00 73.25 11.70 4.5 CYCLONE tropical 968 70 kt, 129 km/h 98 kt, 182 km/h
09/12/2009 12:00 72.22 11.91 4.0 Forte TEMPETE tropicale 977 60 kt, 111 km/h 84 kt, 156 km/h
09/12/2009 18:00 71.54 12.47 4.0 Forte TEMPETE tropicale 980 55 kt, 101 km/h 77 kt, 143 km/h
10/12/2009 00:00 71.03 12.89 4.0 Forte TEMPETE tropicale 980 55 kt, 101 km/h 77 kt, 143 km/h
10/12/2009 06:00 70.54 13.29 3.5 Forte TEMPETE tropicale 985 50 kt, 92 km/h 70 kt, 130 km/h
10/12/2009 12:00 69.89 13.79 3.0 TEMPETE tropicale moderée 990 43 kt, 79 km/h 60 kt, 112 km/h
10/12/2009 18:00 69.11 14.15 2.5 TEMPETE tropicale moderée 995 35 kt, 64 km/h 49 kt, 91 km/h
11/12/2009 00:00 68.41 14.03 2.5 DEPRESSION tropicale 997 30 kt, 55 km/h 42 kt, 78 km/h
11/12/2009 06:00 67.64 13.82 2.0 Perturbation tropicale 1000 25 kt, 46 km/h 35 kt, 65 km/h
11/12/2009 12:00 66.87 14.01 2.0 Perturbation tropicale 1001 25 kt, 46 km/h 35 kt, 65 km/h
11/12/2009 18:00 65.96 14.15 2.0 Perturbation tropicale 1002 23 kt, 42 km/h 32 kt, 60 km/h
12/12/2009 00:00 65.04 14.26 2.0 Perturbation tropicale 1002 23 kt, 42 km/h 32 kt, 60 km/h
12/12/2009 06:00 64.34 14.35 2.0 Perturbation tropicale 1003 22 kt, 40 km/h 31 kt, 57 km/h
12/12/2009 12:00 63.58 14.50 2.0 Perturbation tropicale 1003 22 kt, 40 km/h 31 kt, 57 km/h
12/12/2009 18:00 63.02 14.60 2.0 Perturbation tropicale 1003 22 kt, 40 km/h 31 kt, 57 km/h
13/12/2009 00:00 62.48 14.74 2.0 Perturbation tropicale 1003 22 kt, 40 km/h 31 kt, 57 km/h
13/12/2009 06:00 62.11 15.17 1.5 Zone perturbée 1004 20 kt, 37 km/h 28 kt, 52 km/h
13/12/2009 12:00 61.89 15.82 1.5 Zone perturbée 1004 20 kt, 37 km/h 28 kt, 52 km/h
13/12/2009 18:00 61.48 16.39 1.5 Zone perturbée 1005 20 kt, 37 km/h 28 kt, 52 km/h
14/12/2009 00:00 60.96 17.12 1.5 Zone perturbée 1005 20 kt, 37 km/h 28 kt, 52 km/h
14/12/2009 06:00 60.54 17.88 1.5 Zone perturbée 1005 20 kt, 37 km/h 28 kt, 52 km/h
14/12/2009 12:00 60.13 18.57 1.5 DEPRESSION se comblant 1006 20 kt, 37 km/h 28 kt, 52 km/h
14/12/2009 18:00 59.96 18.90   DEPRESSION se comblant 1007 15 kt, 27 km/h 21 kt, 39 km/h
15/12/2009 00:00 59.92 19.01   DEPRESSION se comblant 1007 15 kt, 27 km/h 21 kt, 39 km/h
15/12/2009 06:00 59.95 19.10   DEPRESSION se comblant 1008 15 kt, 27 km/h 21 kt, 39 km/h
15/12/2009 12:00 60.20 20.09   DEPRESSION se comblant 1008 15 kt, 27 km/h 21 kt, 39 km/h
15/12/2009 18:00 60.25 20.82   DEPRESSION se comblant 1009 15 kt, 27 km/h 21 kt, 39 km/h
16/12/2009 00:00 59.90 21.17   DEPRESSION se comblant 1009 15 kt, 27 km/h 21 kt, 39 km/h
16/12/2009 06:00 59.28 21.34   DEPRESSION se comblant 1010 15 kt, 27 km/h 21 kt, 39 km/h
16/12/2009 12:00 58.56 21.36   DEPRESSION se comblant 1010 15 kt, 27 km/h 21 kt, 39 km/h
16/12/2009 18:00 57.90 21.39   DEPRESSION se comblant 1011    
17/12/2009 00:00 57.27 21.78   DEPRESSION se comblant 1011    
17/12/2009 06:00 56.60 22.30   DEPRESSION se comblant 1012